Time;durP1;ratioP1;P1;durP2;ratioP2;P2;SDS_P1;SDS_P2;PMS_P1;PMS_P2;Temp;Humidity;BMP_temperature;BMP_pressure;BME280_temperature;BME280_humidity;BME280_pressure;Samples;Min_cycle;Max_cycle;Signal;HPM_P1;HPM_P2
2023/09/06 00:00:27;;;;;;;6.43;5.82;;;16.90;99.90;;;-141.84;77.62;20582.16;5043216;28;20237;-62
2023/09/06 00:02:57;;;;;;;6.05;5.45;;;16.90;99.90;;;-141.84;77.74;20557.75;5035510;28;20417;-60
2023/09/06 00:05:29;;;;;;;5.93;5.43;;;16.90;99.90;;;-141.84;77.69;20578.09;5043801;28;20762;-61
2023/09/06 00:07:58;;;;;;;6.03;5.53;;;16.90;99.90;;;-141.84;77.99;20549.63;5043147;28;20233;-60
2023/09/06 00:10:26;;;;;;;5.72;5.10;;;16.90;99.90;;;-141.84;78.39;20549.63;5043188;28;20261;-60
2023/09/06 00:12:54;;;;;;;6.22;5.40;;;16.80;99.90;;;-141.84;78.73;20515.06;5035312;28;20485;-60
2023/09/06 00:15:23;;;;;;;6.72;5.25;;;16.70;99.90;;;-141.84;79.03;20517.09;5043324;28;20290;-61
2023/09/06 00:17:52;;;;;;;5.90;5.35;;;16.70;99.90;;;-141.84;79.18;20535.41;5036556;28;20202;-61
2023/09/06 00:20:21;;;;;;;7.00;5.60;;;16.70;99.90;;;-141.84;79.35;20454.09;5023686;28;20320;-61
2023/09/06 00:22:58;;;;;;;6.38;5.60;;;16.60;99.90;;;-141.84;79.54;20460.19;5016170;28;20760;-60
2023/09/06 00:25:28;;;;;;;6.50;5.78;;;16.60;99.90;;;-141.84;79.62;20462.22;5036749;28;20312;-60
2023/09/06 00:27:57;;;;;;;6.38;5.78;;;16.60;99.90;;;-141.84;79.72;20466.28;5024078;28;20400;-60
2023/09/06 00:30:26;;;;;;;6.47;5.88;;;16.50;99.90;;;-141.84;79.77;20472.38;5024592;28;20226;-61
2023/09/06 00:32:54;;;;;;;6.43;5.82;;;16.60;99.90;;;-141.84;79.47;20486.59;5015800;28;20654;-60
2023/09/06 00:35:24;;;;;;;6.78;6.00;;;16.50;99.90;;;-141.84;79.26;20472.38;5023283;28;20226;-61
2023/09/06 00:37:54;;;;;;;5.95;5.45;;;16.60;99.90;;;-141.84;79.15;20521.16;5022731;28;20229;-61
2023/09/06 00:40:24;;;;;;;6.90;5.70;;;16.60;99.90;;;-141.84;79.08;20496.78;5023237;28;20727;-61
2023/09/06 00:42:56;;;;;;;6.43;5.78;;;16.60;99.90;;;-141.84;78.81;20470.34;5015170;28;20234;-61
2023/09/06 00:45:26;;;;;;;7.13;6.00;;;16.60;99.90;;;-141.84;78.90;20460.19;5023066;28;20249;-59
2023/09/06 00:47:56;;;;;;;8.60;5.97;;;16.60;99.90;;;-141.84;78.87;20447.97;5022989;28;20206;-61
2023/09/06 00:50:26;;;;;;;7.10;6.47;;;16.60;99.90;;;-141.84;78.18;20435.78;5023207;28;20303;-61
2023/09/06 00:52:57;;;;;;;6.78;6.18;;;16.60;99.90;;;-141.84;78.38;20450.03;5014661;28;20856;-62
2023/09/06 00:55:27;;;;;;;6.43;5.82;;;16.60;99.90;;;-141.84;78.67;20441.88;5026047;28;20317;-62
2023/09/06 00:57:56;;;;;;;7.43;6.53;;;16.60;99.90;;;-141.84;78.98;20456.13;5022802;28;20344;-60
2023/09/06 01:00:24;;;;;;;5.97;5.43;;;16.60;99.90;;;-141.84;78.34;20443.91;5022837;28;20236;-61
2023/09/06 01:02:53;;;;;;;6.65;6.00;;;16.60;99.90;;;-141.84;78.42;20472.38;5010172;28;20195;-61
2023/09/06 01:05:22;;;;;;;6.43;5.82;;;16.50;99.90;;;-141.84;78.40;20452.06;5003194;28;20284;-61
2023/09/06 01:07:55;;;;;;;6.50;5.93;;;16.60;99.90;;;-141.84;78.45;20450.03;5002588;28;20230;-60
2023/09/06 01:10:23;;;;;;;7.15;6.32;;;16.50;99.90;;;-141.84;77.98;20490.66;5003008;28;20238;-63
2023/09/06 01:12:54;;;;;;;7.80;5.93;;;16.50;99.90;;;-141.84;78.60;20474.41;4994626;28;20237;-61
2023/09/06 01:15:23;;;;;;;7.00;6.03;;;16.50;99.90;;;-141.84;78.74;20445.94;5006762;28;20253;-61
2023/09/06 01:17:54;;;;;;;6.60;5.57;;;16.50;99.90;;;-141.84;79.19;20411.41;5023062;28;20210;-61
2023/09/06 01:20:33;;;;;;;6.85;6.18;;;16.50;99.90;;;-141.84;78.82;20441.88;5002844;28;20226;-60
2023/09/06 01:23:16;;;;;;;7.30;6.60;;;16.50;99.90;;;-141.84;78.94;20423.59;5015580;28;20295;-60
2023/09/06 01:25:46;;;;;;;7.85;6.00;;;16.40;99.90;;;-141.84;79.31;20431.72;5035407;28;20575;-61
2023/09/06 01:28:15;;;;;;;6.72;5.88;;;16.40;99.90;;;-141.84;79.78;20401.22;5013359;28;20310;-61
2023/09/06 01:30:43;;;;;;;7.18;6.20;;;16.40;99.90;;;-141.84;80.42;20409.38;4997570;28;20241;-60
2023/09/06 01:33:13;;;;;;;6.85;6.15;;;16.30;99.90;;;-141.84;80.59;20403.25;5002830;28;20277;-61
2023/09/06 01:35:41;;;;;;;7.20;6.50;;;16.30;99.90;;;-141.84;79.99;20415.47;5003137;28;20207;-61
2023/09/06 01:38:11;;;;;;;8.35;6.93;;;16.30;99.90;;;-141.84;79.64;20435.78;5020965;28;20261;-60
2023/09/06 01:40:39;;;;;;;7.03;6.32;;;16.20;99.90;;;-141.84;79.93;20374.81;5014157;28;20261;-61
2023/09/06 01:43:09;;;;;;;6.97;6.28;;;16.20;99.90;;;-141.84;79.60;20380.91;5022109;28;20772;-61
2023/09/06 01:45:39;;;;;;;7.78;6.35;;;16.20;99.90;;;-141.84;79.68;20376.84;5022559;28;20325;-63
2023/09/06 01:48:07;;;;;;;6.85;6.22;;;16.20;99.90;;;-141.84;79.63;20358.56;5022052;28;20198;-60
2023/09/06 01:50:36;;;;;;;7.85;7.15;;;16.20;99.90;;;-141.84;79.72;20368.72;5019849;28;20230;-60
2023/09/06 01:53:04;;;;;;;7.88;7.03;;;16.20;99.90;;;-141.84;79.53;20368.72;5021822;28;20578;-61
2023/09/06 01:55:33;;;;;;;7.32;6.50;;;16.10;99.90;;;-141.84;79.70;20348.38;5020726;28;20324;-59
2023/09/06 01:58:03;;;;;;;7.68;6.97;;;16.10;99.90;;;-141.84;79.51;20368.72;5026328;28;20311;-60
2023/09/06 02:00:37;;;;;;;7.50;6.80;;;16.10;99.90;;;-141.84;79.55;20336.19;5042085;28;20279;-61
2023/09/06 02:03:07;;;;;;;7.40;6.70;;;16.00;99.90;;;-141.84;79.42;20366.69;5042097;28;20206;-61
2023/09/06 02:05:36;;;;;;;7.40;6.68;;;16.00;99.90;;;-141.84;79.01;20346.34;5045793;28;20205;-61
2023/09/06 02:08:05;;;;;;;7.53;6.57;;;16.00;99.90;;;-141.84;78.83;20338.22;5045607;28;20278;-62
2023/09/06 02:10:33;;;;;;;7.60;6.80;;;16.00;99.90;;;-141.84;78.96;20340.25;5045496;28;20225;-60
2023/09/06 02:13:01;;;;;;;7.20;6.47;;;16.00;99.90;;;-141.84;78.77;20346.34;5025214;28;20321;-63
2023/09/06 02:15:30;;;;;;;7.53;6.82;;;16.00;99.90;;;-141.84;78.41;20393.09;5026008;28;20766;-61
2023/09/06 02:17:59;;;;;;;7.55;6.80;;;16.00;99.90;;;-141.84;77.98;20342.28;5026264;28;20234;-61
2023/09/06 02:20:29;;;;;;;7.78;7.03;;;16.00;99.90;;;-141.84;78.48;20340.25;5026297;28;20246;-60
2023/09/06 02:22:57;;;;;;;6.93;6.32;;;16.00;99.90;;;-141.84;78.80;20330.09;5017892;28;20280;-62
2023/09/06 02:25:31;;;;;;;6.93;6.32;;;16.00;99.90;;;-141.84;78.70;20328.06;5022808;28;20230;-60
2023/09/06 02:28:03;;;;;;;7.75;6.85;;;15.90;99.90;;;-141.84;78.62;20350.41;5006141;28;20226;-62
2023/09/06 02:30:32;;;;;;;7.78;7.07;;;15.90;99.90;;;-141.84;78.55;20338.22;5005682;28;20796;-61
2023/09/06 02:33:01;;;;;;;7.63;6.85;;;15.90;99.90;;;-141.84;78.58;20321.97;5000417;28;20710;-61
2023/09/06 02:35:29;;;;;;;8.48;7.00;;;15.80;99.90;;;-141.84;78.76;20346.34;5006627;28;20633;-62
2023/09/06 02:37:57;;;;;;;7.97;7.20;;;15.90;99.90;;;-141.84;79.07;20334.16;5005701;28;20257;-61
2023/09/06 02:40:26;;;;;;;6.78;6.18;;;15.80;99.90;;;-141.84;79.19;20313.84;5017759;28;20232;-60
2023/09/06 02:42:54;;;;;;;8.07;6.97;;;15.80;99.90;;;-141.84;78.96;20317.91;5017239;28;20695;-61
2023/09/06 02:45:23;;;;;;;7.68;6.97;;;15.80;99.90;;;-141.84;79.28;20303.66;5025010;28;20284;-61
2023/09/06 02:47:52;;;;;;;8.52;7.03;;;15.70;99.90;;;-141.84;79.68;20301.63;5025997;28;20301;-60
2023/09/06 02:50:23;;;;;;;9.38;7.70;;;15.70;99.90;;;-141.84;79.78;20299.59;5025719;28;20229;-60
2023/09/06 02:52:56;;;;;;;7.53;6.82;;;15.70;99.90;;;-141.84;80.08;20273.19;5030718;28;20752;-60
2023/09/06 02:55:24;;;;;;;7.53;6.80;;;15.60;99.90;;;-141.84;80.18;20324.00;5044892;28;20308;-61
2023/09/06 02:57:52;;;;;;;7.97;6.82;;;15.60;99.90;;;-141.84;80.00;20254.88;5044902;28;20263;-63
2023/09/06 03:00:24;;;;;;;8.93;6.90;;;15.60;99.90;;;-141.84;79.96;20307.72;5044716;28;20716;-61
2023/09/06 03:02:58;;;;;;;9.70;7.80;;;15.60;99.90;;;-141.84;79.85;20273.19;5037736;28;20611;-61
2023/09/06 03:05:29;;;;;;;8.00;7.22;;;15.60;99.90;;;-141.84;79.26;20293.50;5044999;28;20225;-61
2023/09/06 03:07:58;;;;;;;7.40;6.70;;;15.60;99.90;;;-141.84;79.25;20305.69;5039232;28;20253;-62
2023/09/06 03:10:27;;;;;;;7.63;6.95;;;15.60;99.90;;;-141.84;79.38;20324.00;5024419;28;20242;-61
2023/09/06 03:12:57;;;;;;;8.00;7.13;;;15.60;99.90;;;-141.84;79.49;20303.66;5016811;28;20234;-62
2023/09/06 03:15:28;;;;;;;7.80;6.72;;;15.60;99.90;;;-141.84;79.96;20287.41;5024442;28;20236;-62
2023/09/06 03:17:59;;;;;;;8.02;7.25;;;15.60;99.90;;;-141.84;79.76;20281.31;5024019;28;20252;-60
2023/09/06 03:20:33;;;;;;;8.18;7.38;;;15.60;99.90;;;-141.84;79.18;20293.50;5025179;28;20590;-61
2023/09/06 03:23:09;;;;;;;8.38;6.85;;;15.60;99.90;;;-141.84;78.70;20289.44;5021648;28;20233;-60
2023/09/06 03:25:40;;;;;;;8.27;7.47;;;15.60;99.90;;;-141.84;79.19;20263.00;5037046;28;20721;-61
2023/09/06 03:28:08;;;;;;;8.07;7.13;;;15.60;99.90;;;-141.84;79.31;20254.88;5023298;28;20309;-61
2023/09/06 03:30:38;;;;;;;8.15;7.35;;;15.60;99.90;;;-141.84;79.49;20230.50;5020428;28;20241;-61
2023/09/06 03:33:07;;;;;;;7.95;7.18;;;15.50;99.90;;;-141.84;79.70;20301.63;5024554;28;20241;-61
2023/09/06 03:35:37;;;;;;;9.00;7.63;;;15.50;99.90;;;-141.84;80.14;20256.91;5025571;28;20218;-61
2023/09/06 03:38:08;;;;;;;8.43;7.63;;;15.50;99.90;;;-141.84;80.32;20238.63;5024081;28;20407;-62
2023/09/06 03:40:37;;;;;;;8.05;7.35;;;15.50;99.90;;;-141.84;80.22;20254.88;5020046;28;20225;-60
2023/09/06 03:43:14;;;;;;;8.63;7.78;;;15.40;99.90;;;-141.84;79.56;20281.31;5024009;28;20604;-62
2023/09/06 03:45:45;;;;;;;8.30;7.55;;;15.50;99.90;;;-141.84;79.30;20281.31;5023863;28;20245;-61
2023/09/06 03:48:14;;;;;;;7.78;7.07;;;15.50;99.90;;;-141.84;79.83;20271.16;5029544;28;20213;-61
2023/09/06 03:50:45;;;;;;;8.40;7.60;;;15.40;99.90;;;-141.84;80.44;20210.16;5036631;28;20407;-61
2023/09/06 03:53:15;;;;;;;8.30;7.50;;;15.40;99.90;;;-141.84;80.82;20212.19;5043958;28;20585;-61
2023/09/06 03:55:43;;;;;;;8.07;7.28;;;15.40;99.90;;;-141.84;80.05;20226.44;5043816;28;20236;-60
2023/09/06 03:58:11;;;;;;;9.00;7.32;;;15.40;99.90;;;-141.84;79.21;20279.28;5043258;28;20233;-60
2023/09/06 04:00:43;;;;;;;9.10;7.43;;;15.40;99.90;;;-141.84;79.28;20260.97;5035665;28;20256;-60
2023/09/06 04:03:11;;;;;;;7.32;6.63;;;15.40;99.90;;;-141.84;80.02;20248.78;5043709;28;20202;-60
2023/09/06 04:05:46;;;;;;;8.25;7.45;;;15.40;99.90;;;-141.84;80.63;20256.91;5026063;28;20678;-60
2023/09/06 04:08:17;;;;;;;8.40;7.60;;;15.30;99.90;;;-141.84;80.73;20250.81;5023858;28;20313;-60
2023/09/06 04:10:48;;;;;;;8.60;7.80;;;15.30;99.90;;;-141.84;79.17;20265.03;5015260;28;20241;-61
2023/09/06 04:13:16;;;;;;;8.35;7.22;;;15.30;99.90;;;-141.84;79.68;20248.78;5023328;28;20936;-60
2023/09/06 04:15:44;;;;;;;8.05;7.25;;;15.40;99.90;;;-141.84;80.24;20193.91;5023720;28;20238;-60
2023/09/06 04:18:13;;;;;;;8.80;6.95;;;15.30;99.90;;;-141.84;80.86;20244.72;5022952;28;20206;-61
2023/09/06 04:20:46;;;;;;;12.35;7.60;;;15.30;99.90;;;-141.84;81.32;20171.56;5015586;28;20751;-64
2023/09/06 04:23:16;;;;;;;7.97;7.15;;;15.20;99.90;;;-141.84;82.10;20193.91;5023483;28;20275;-61
2023/09/06 04:25:45;;;;;;;8.10;7.28;;;15.20;99.90;;;-141.84;82.37;20175.63;5035728;28;20217;-60
2023/09/06 04:28:16;;;;;;;10.98;7.88;;;15.20;99.90;;;-141.84;82.68;20165.44;5022721;28;20230;-61
2023/09/06 04:30:46;;;;;;;9.90;8.05;;;15.10;99.90;;;-141.84;82.85;20179.69;5015161;28;20222;-60
2023/09/06 04:33:15;;;;;;;8.77;7.78;;;15.10;99.90;;;-141.84;82.68;20173.59;5023346;28;20234;-60
2023/09/06 04:35:48;;;;;;;7.85;7.05;;;15.10;99.90;;;-141.84;83.15;20155.28;5023637;28;20232;-62
2023/09/06 04:38:18;;;;;;;8.70;7.90;;;15.10;99.90;;;-141.84;83.15;20171.56;5023476;28;20230;-65
2023/09/06 04:40:48;;;;;;;9.30;7.90;;;15.10;99.90;;;-141.84;82.87;20187.81;5015466;28;20253;-62
2023/09/06 04:43:18;;;;;;;9.07;8.18;;;15.10;99.90;;;-141.84;83.06;20141.06;5023016;28;20320;-61
2023/09/06 04:45:47;;;;;;;8.30;7.25;;;15.10;99.90;;;-141.84;83.11;20175.63;5038716;28;20321;-61
2023/09/06 04:48:16;;;;;;;10.25;7.95;;;15.10;99.90;;;-141.84;83.01;20179.69;5042696;28;20306;-61
2023/09/06 04:50:48;;;;;;;8.35;7.55;;;15.10;99.90;;;-141.84;83.30;20189.84;5035504;28;20632;-62
2023/09/06 04:53:17;;;;;;;9.55;8.02;;;15.10;99.90;;;-141.84;83.02;20143.09;5043177;28;20650;-61
2023/09/06 04:55:49;;;;;;;8.07;7.38;;;15.10;99.90;;;-141.84;82.79;20204.06;5042750;28;20586;-61
2023/09/06 04:58:18;;;;;;;8.57;7.68;;;15.10;99.90;;;-141.84;82.89;20181.72;5042867;28;20282;-61
2023/09/06 05:00:51;;;;;;;8.23;7.43;;;15.20;99.90;;;-141.84;82.81;20200.00;5025913;28;20309;-60
2023/09/06 05:03:19;;;;;;;9.27;8.02;;;15.20;99.90;;;-141.84;82.79;20191.88;5022424;28;20222;-61
2023/09/06 05:05:51;;;;;;;9.80;7.70;;;15.20;99.90;;;-141.84;82.60;20214.22;5023269;28;20206;-61
2023/09/06 05:08:20;;;;;;;9.02;8.20;;;15.30;99.90;;;-141.84;81.75;20248.78;5023083;28;20764;-61
2023/09/06 05:10:51;;;;;;;8.30;7.50;;;15.30;99.90;;;-141.84;81.45;20212.19;5015052;28;20634;-62
2023/09/06 05:13:20;;;;;;;9.00;8.10;;;15.40;99.90;;;-141.84;80.67;20230.50;5022944;28;20234;-61
2023/09/06 05:15:48;;;;;;;9.10;8.15;;;15.40;99.90;;;-141.84;80.39;20265.03;5022259;28;20272;-60
2023/09/06 05:18:16;;;;;;;9.77;7.93;;;15.50;99.90;;;-141.84;80.28;20275.22;5022611;28;20306;-61
2023/09/06 05:20:44;;;;;;;8.88;7.75;;;15.60;99.90;;;-141.84;79.89;20236.59;5014799;28;20206;-60
2023/09/06 05:23:15;;;;;;;9.52;7.20;;;15.70;99.90;;;-141.84;79.72;20297.56;5022086;28;20325;-62
2023/09/06 05:25:44;;;;;;;9.68;8.00;;;15.80;99.90;;;-141.84;79.08;20289.44;5035358;28;20316;-62
2023/09/06 05:28:15;;;;;;;8.52;7.70;;;16.00;99.90;;;-141.84;77.99;20344.31;5022699;28;20634;-62
2023/09/06 05:30:45;;;;;;;10.10;8.52;;;16.10;99.90;;;-141.84;76.88;20399.19;5014940;28;20237;-61
2023/09/06 05:33:15;;;;;;;10.07;8.77;;;16.30;99.90;;;-141.84;76.23;20423.59;5022737;28;20320;-61
2023/09/06 05:35:44;;;;;;;8.63;7.63;;;16.50;99.90;;;-141.84;75.45;20460.19;5022539;28;20264;-61
2023/09/06 05:38:14;;;;;;;8.48;7.65;;;16.70;99.90;;;-141.84;74.56;20470.34;5022191;28;20320;-61
2023/09/06 05:40:43;;;;;;;7.90;7.10;;;16.90;99.90;;;-141.84;73.99;20517.09;5023054;28;20260;-63
2023/09/06 05:43:11;;;;;;;8.75;7.68;;;17.00;99.90;;;-141.84;73.68;20529.28;5046163;28;20486;-61
2023/09/06 05:45:41;;;;;;;7.57;6.88;;;17.20;99.90;;;-141.84;73.49;20535.41;5046244;28;20290;-61
2023/09/06 05:48:09;;;;;;;8.82;7.57;;;17.30;99.90;;;-141.84;73.05;20592.31;5045695;28;20656;-61
2023/09/06 05:50:53;;;;;;;7.97;7.10;;;17.40;99.90;;;-141.84;72.57;20576.03;5038910;28;20696;-61
2023/09/06 05:53:24;;;;;;;8.00;7.13;;;17.50;99.90;;;-141.84;72.20;20618.72;5046583;28;20304;-60
2023/09/06 05:55:52;;;;;;;7.70;6.90;;;17.60;99.90;;;-141.84;71.80;20610.59;5030183;28;20236;-61
2023/09/06 05:58:20;;;;;;;10.88;6.78;;;17.80;99.90;;;-141.84;71.38;20643.13;5026625;28;20224;-61
2023/09/06 06:00:53;;;;;;;7.70;6.68;;;17.80;99.90;;;-141.84;71.42;20671.59;5010174;28;20318;-61
2023/09/06 06:03:21;;;;;;;10.32;7.88;;;17.90;99.90;;;-141.84;70.72;20732.56;5000962;28;20321;-61
2023/09/06 06:05:51;;;;;;;8.98;7.30;;;18.00;99.90;;;-141.84;70.49;20700.03;5006488;28;20215;-60
2023/09/06 06:08:19;;;;;;;8.80;6.90;;;18.00;99.90;;;-141.84;70.26;20740.69;5006360;28;20241;-63
2023/09/06 06:10:49;;;;;;;8.68;6.90;;;18.10;99.90;;;-141.84;70.05;20744.78;5005622;28;20229;-61
2023/09/06 06:13:17;;;;;;;19.92;11.23;;;18.10;99.90;;;-141.84;70.12;20781.38;5023857;28;20245;-60
2023/09/06 06:15:46;;;;;;;17.25;9.68;;;18.20;99.90;;;-141.84;70.17;20769.16;5025435;28;20233;-60
2023/09/06 06:18:15;;;;;;;12.23;8.27;;;18.20;99.90;;;-141.84;70.06;20779.31;5026245;28;20207;-58
2023/09/06 06:20:43;;;;;;;9.60;7.07;;;18.30;99.90;;;-141.84;70.05;20803.72;5029172;28;20303;-60
2023/09/06 06:23:12;;;;;;;8.63;6.88;;;18.40;99.90;;;-141.84;69.61;20840.31;5043737;28;20239;-58
2023/09/06 06:25:40;;;;;;;11.00;7.82;;;18.50;99.90;;;-141.84;69.37;20777.28;5041254;28;20221;-60
2023/09/06 06:28:10;;;;;;;9.55;7.65;;;18.60;99.90;;;-141.84;67.85;20866.75;5014129;28;20222;-61
2023/09/06 06:30:38;;;;;;;7.93;7.13;;;18.70;99.90;;;-141.84;67.82;20878.94;5012489;28;20230;-62
2023/09/06 06:33:07;;;;;;;9.32;6.78;;;18.60;99.90;;;-141.84;68.42;20864.72;5005845;28;20313;-61
2023/09/06 06:35:36;;;;;;;7.10;6.05;;;18.70;99.90;;;-141.84;68.38;20895.19;5003630;28;20214;-60
2023/09/06 06:38:05;;;;;;;6.78;6.03;;;18.70;99.90;;;-141.84;68.53;20854.53;5005202;28;20230;-61
2023/09/06 06:40:36;;;;;;;7.05;6.35;;;18.70;99.90;;;-141.84;68.08;20872.84;5005156;28;20689;-61
2023/09/06 06:43:06;;;;;;;10.15;6.13;;;18.70;99.90;;;-141.84;67.58;20917.56;5005598;28;20318;-61
2023/09/06 06:45:36;;;;;;;6.70;5.88;;;18.80;99.90;;;-141.84;67.21;20895.19;5005524;28;20717;-60
2023/09/06 06:48:05;;;;;;;6.00;5.40;;;18.70;99.90;;;-141.84;66.67;20905.38;5005059;28;20213;-59
2023/09/06 06:50:33;;;;;;;7.57;5.63;;;18.80;99.90;;;-141.84;66.12;20950.09;5005169;28;20215;-60
2023/09/06 06:53:01;;;;;;;6.18;5.57;;;18.80;99.90;;;-141.84;65.43;21000.91;5000774;28;20246;-59
2023/09/06 06:55:30;;;;;;;7.30;6.00;;;18.90;99.90;;;-141.84;63.88;21059.88;5019928;28;20287;-60
2023/09/06 06:57:58;;;;;;;6.63;5.22;;;19.00;99.90;;;-141.84;64.32;21019.22;5025240;28;20244;-59
2023/09/06 07:00:31;;;;;;;6.25;5.68;;;19.00;99.90;;;-141.84;64.40;21041.56;5019841;28;20300;-60
2023/09/06 07:03:08;;;;;;;9.13;5.53;;;19.00;99.90;;;-141.84;63.91;21027.34;4996624;28;20206;-59
2023/09/06 07:05:38;;;;;;;5.63;5.13;;;19.10;99.90;;;-141.84;63.22;21055.81;5005413;28;20587;-60
2023/09/06 07:08:06;;;;;;;7.90;5.60;;;19.10;99.90;;;-141.84;62.69;21108.66;5004824;28;20226;-59
2023/09/06 07:10:35;;;;;;;5.40;4.90;;;19.20;99.90;;;-141.84;61.67;21226.59;5017027;28;20234;-60
2023/09/06 07:13:03;;;;;;;6.53;5.05;;;19.40;99.90;;;-141.84;60.32;21277.41;5024084;28;20329;-60
2023/09/06 07:15:31;;;;;;;6.00;5.40;;;19.80;99.90;;;-141.84;59.81;21314.00;5024669;28;20667;-58
2023/09/06 07:18:01;;;;;;;6.80;5.57;;;19.90;99.90;;;-141.84;59.93;21332.31;5024543;28;20202;-60
2023/09/06 07:20:31;;;;;;;5.85;5.07;;;20.10;99.90;;;-141.84;60.14;21273.34;5024774;28;20757;-59
2023/09/06 07:22:59;;;;;;;5.60;4.43;;;20.00;99.90;;;-141.84;60.11;21269.28;5016603;28;20316;-58
2023/09/06 07:25:28;;;;;;;6.20;5.22;;;20.00;99.90;;;-141.84;60.66;21273.34;5033406;28;20232;-61
2023/09/06 07:27:59;;;;;;;7.95;5.53;;;20.00;99.90;;;-141.84;59.72;21314.00;5015797;28;20230;-58
2023/09/06 07:30:28;;;;;;;7.18;5.22;;;20.00;99.90;;;-141.84;59.82;21295.72;5008827;28;20317;-60
2023/09/06 07:32:56;;;;;;;5.18;4.65;;;20.00;99.90;;;-141.84;59.50;21340.44;5019676;28;20949;-60
2023/09/06 07:35:24;;;;;;;5.57;4.80;;;20.00;99.90;;;-141.84;59.32;21360.78;5043787;28;20723;-59
2023/09/06 07:37:54;;;;;;;6.32;5.00;;;20.10;99.90;;;-141.84;59.03;21358.75;5024164;28;20427;-60
2023/09/06 07:40:22;;;;;;;6.50;5.28;;;20.20;99.90;;;-141.84;58.78;21342.47;5023975;28;20229;-60
2023/09/06 07:42:51;;;;;;;5.93;5.18;;;20.20;99.90;;;-141.84;58.35;21403.47;5015073;28;20325;-62
2023/09/06 07:45:19;;;;;;;4.90;4.50;;;20.30;99.90;;;-141.84;58.09;21399.41;5023927;28;20257;-59
2023/09/06 07:47:47;;;;;;;5.32;4.65;;;20.30;99.90;;;-141.84;57.93;21433.97;5024876;28;20214;-61
2023/09/06 07:50:15;;;;;;;5.72;5.05;;;20.40;99.90;;;-141.84;57.88;21440.06;5023862;28;20683;-59
2023/09/06 07:52:44;;;;;;;6.55;4.82;;;20.50;99.90;;;-141.84;57.48;21464.47;5016782;28;20230;-59
2023/09/06 07:55:13;;;;;;;5.32;4.40;;;20.60;99.90;;;-141.84;56.96;21492.94;5037144;28;20295;-60
2023/09/06 07:57:41;;;;;;;5.82;4.60;;;20.60;99.90;;;-141.84;56.47;21505.13;5041913;28;20308;-59
2023/09/06 08:00:12;;;;;;;6.15;4.40;;;20.70;99.90;;;-141.84;56.70;21527.50;5023484;28;20265;-60
2023/09/06 08:02:40;;;;;;;7.00;4.90;;;20.80;99.90;;;-141.84;55.91;21562.06;5017443;28;20233;-60
2023/09/06 08:05:09;;;;;;;5.68;4.40;;;20.90;99.90;;;-141.84;54.48;21631.19;5023853;28;20229;-59
2023/09/06 08:07:37;;;;;;;5.25;4.75;;;21.10;99.90;;;-141.84;54.56;21619.00;5023197;28;20230;-60
2023/09/06 08:10:09;;;;;;;6.47;4.68;;;21.20;99.90;;;-141.84;55.05;21647.47;5023406;28;20237;-60
2023/09/06 08:12:38;;;;;;;6.43;4.40;;;21.20;99.90;;;-141.84;53.20;21671.84;5016133;28;20240;-58
2023/09/06 08:15:08;;;;;;;5.05;4.55;;;21.40;99.90;;;-141.84;53.09;21694.22;5023479;28;20264;-59
2023/09/06 08:17:36;;;;;;;8.20;4.70;;;21.40;99.90;;;-141.84;53.13;21704.38;5024485;28;20681;-60
2023/09/06 08:20:08;;;;;;;4.90;4.07;;;21.40;99.90;;;-141.84;52.42;21722.69;5023631;28;20244;-60
2023/09/06 08:22:40;;;;;;;6.50;4.20;;;21.50;99.90;;;-141.84;52.21;21732.84;5014829;28;20662;-62
2023/09/06 08:25:13;;;;;;;6.60;4.72;;;21.60;99.90;;;-141.84;52.46;21783.69;5022011;28;20690;-59
2023/09/06 08:27:43;;;;;;;4.85;4.35;;;21.70;99.90;;;-141.84;52.09;21787.75;5023241;28;20743;-61
2023/09/06 08:30:14;;;;;;;4.90;4.50;;;21.80;99.90;;;-141.84;51.83;21850.78;5032698;28;20213;-58
2023/09/06 08:32:45;;;;;;;4.53;4.13;;;21.90;99.90;;;-141.84;50.97;21852.81;5016248;28;20213;-60
2023/09/06 08:35:13;;;;;;;6.82;4.60;;;21.90;99.90;;;-141.84;50.62;21871.13;5022680;28;20261;-60
2023/09/06 08:37:42;;;;;;;5.22;4.07;;;22.00;99.90;;;-141.84;50.47;21885.38;5023001;28;20314;-61
2023/09/06 08:40:11;;;;;;;4.57;4.13;;;22.20;99.90;;;-141.84;50.02;21968.72;5022408;28;20740;-60
2023/09/06 08:42:40;;;;;;;5.93;4.38;;;22.30;99.90;;;-141.84;49.27;21993.13;5014599;28;20268;-60
2023/09/06 08:45:10;;;;;;;9.02;4.40;;;22.40;99.90;;;-141.84;49.39;21968.72;5022387;28;20375;-60
2023/09/06 08:47:40;;;;;;;4.40;4.00;;;22.40;99.90;;;-141.84;49.43;22021.59;5023395;28;20268;-59
2023/09/06 08:50:10;;;;;;;5.32;3.78;;;22.50;99.90;;;-141.84;48.97;22039.91;5022648;28;20269;-60
2023/09/06 08:52:41;;;;;;;4.35;3.90;;;22.60;99.90;;;-141.84;48.51;22052.09;5014977;28;20327;-59
2023/09/06 08:55:11;;;;;;;5.50;4.30;;;22.70;99.90;;;-141.84;48.13;22074.47;5024128;28;20281;-58
2023/09/06 08:57:41;;;;;;;4.88;4.43;;;22.80;99.90;;;-141.84;48.55;22082.63;5007597;28;20238;-60
2023/09/06 09:00:13;;;;;;;5.18;4.40;;;22.80;99.90;;;-141.84;48.57;22107.00;5009857;28;20301;-59
2023/09/06 09:02:43;;;;;;;6.03;4.60;;;23.00;99.90;;;-141.84;48.83;22141.59;4995740;28;20214;-60
2023/09/06 09:05:13;;;;;;;4.88;4.38;;;23.00;99.90;;;-141.84;48.62;22157.84;5003210;28;20234;-61
2023/09/06 09:07:50;;;;;;;4.72;4.10;;;23.10;99.90;;;-141.84;48.19;22168.03;5003118;28;20757;-62
2023/09/06 09:10:20;;;;;;;4.90;4.40;;;23.20;99.90;;;-141.84;47.91;22214.78;5002992;28;20249;-61
2023/09/06 09:12:52;;;;;;;4.47;4.07;;;23.30;99.90;;;-141.84;47.68;22222.94;4994352;28;20737;-60
2023/09/06 09:15:25;;;;;;;5.13;4.45;;;23.40;99.90;;;-141.84;47.67;22222.94;5001546;28;20234;-61
2023/09/06 09:17:54;;;;;;;5.28;4.20;;;23.40;99.90;;;-141.84;47.53;22249.38;5002768;28;20286;-59
2023/09/06 09:20:26;;;;;;;4.43;4.03;;;23.50;99.90;;;-141.84;46.72;22259.53;5003022;28;20325;-59
2023/09/06 09:23:02;;;;;;;4.78;4.38;;;23.50;99.90;;;-141.84;46.62;22269.69;4994913;28;20385;-60
2023/09/06 09:25:33;;;;;;;7.43;4.03;;;23.60;99.90;;;-141.84;46.07;22314.44;5014852;28;20237;-60
2023/09/06 09:28:02;;;;;;;5.28;4.25;;;23.60;99.90;;;-141.84;45.64;22387.66;5001925;28;20841;-60
2023/09/06 09:30:33;;;;;;;4.70;4.10;;;23.70;99.90;;;-141.84;45.84;22351.03;5003256;28;20226;-59
2023/09/06 09:33:02;;;;;;;4.40;4.00;;;23.80;99.90;;;-141.84;46.01;22383.59;4998380;28;20238;-59
2023/09/06 09:35:32;;;;;;;4.60;3.78;;;23.80;99.90;;;-141.84;45.33;22355.13;5022432;28;20226;-60
2023/09/06 09:38:04;;;;;;;4.25;3.42;;;23.80;99.90;;;-141.84;45.41;22395.78;5022579;28;20654;-59
2023/09/06 09:40:33;;;;;;;4.47;3.88;;;23.90;99.90;;;-141.84;44.36;22456.81;5022115;28;20294;-60
2023/09/06 09:43:20;;;;;;;3.85;3.30;;;24.00;99.90;;;-141.84;43.80;22438.50;5022185;28;20240;-58
2023/09/06 09:45:50;;;;;;;4.75;4.03;;;24.10;99.90;;;-141.84;44.86;22464.94;5021701;28;20392;-59
2023/09/06 09:48:19;;;;;;;4.60;3.60;;;24.10;99.90;;;-141.84;44.23;22481.22;5021985;28;20400;-60
2023/09/06 09:50:56;;;;;;;3.83;3.53;;;24.20;99.90;;;-141.84;43.86;22497.47;5015152;28;20736;-59
2023/09/06 09:53:25;;;;;;;4.10;3.70;;;24.30;99.90;;;-141.84;43.41;22495.44;5022633;28;20221;-60
2023/09/06 09:55:56;;;;;;;4.30;3.72;;;24.30;99.90;;;-141.84;43.56;22525.94;5015950;28;20262;-60
2023/09/06 09:58:29;;;;;;;5.03;3.75;;;24.30;99.90;;;-141.84;43.47;22562.56;5010046;28;20236;-61
2023/09/06 10:01:00;;;;;;;5.38;3.83;;;24.40;99.90;;;-141.84;43.73;22568.66;5004412;28;20605;-61
2023/09/06 10:03:31;;;;;;;4.15;3.75;;;24.50;99.90;;;-141.84;42.66;22564.59;4999432;28;20528;-59
2023/09/06 10:06:02;;;;;;;4.38;3.70;;;24.60;99.90;;;-141.84;42.96;22568.66;5001776;28;20218;-60
2023/09/06 10:08:35;;;;;;;4.57;3.70;;;24.60;99.90;;;-141.84;42.99;22595.09;5001043;28;20274;-61
2023/09/06 10:11:07;;;;;;;3.80;3.40;;;24.70;99.90;;;-141.84;42.54;22615.44;4999297;28;20309;-61
2023/09/06 10:13:37;;;;;;;4.55;3.30;;;24.60;99.90;;;-141.84;42.34;22643.91;5000249;28;20234;-59
2023/09/06 10:16:08;;;;;;;4.10;3.70;;;24.70;99.90;;;-141.84;42.27;22637.81;4989558;28;20226;-59